Jack Robertson — WDE5993 — position and weather

sailwx.info

Track history (hours):
 
Tides and Currents Weather Stations Pressure Air Temp Water Temp Dewpoint Dewpoint Depression Visibility Wind Speed Wind Dir Waves Ship Positions

Oceanographic research ship Jack Robertson (United States)

Owner: University of Washington Applied Physics Laboratory, Seattle, WA. More information available from US FCC via Universal Licensing System and Coast Guard Vessel Documentation Center.

Last reported at 2019-Apr-10 18:23 UTC. Time now 2019-Apr-18 10:23 UTC.
Position N 47°39' W 122°19'.

; draft 1.7 m.

Type: Other ship. MMSI: 367374350.

Date/timePositionNaut miles runAvg speedWind from/ knotsBaromVisibWave heightAir tempDewpointWater temp
2019-Apr-10 18:23N 47°39' W 122°19'1 3.2
2019-Apr-10 18:01N 47°39' W 122°21'2 4.6
2019-Apr-10 17:30N 47°40' W 122°24'1 1.9
2019-Apr-10 17:00N 47°41' W 122°24'0 0.7
2019-Apr-10 16:30N 47°41' W 122°25'0 0.2
2019-Apr-10 16:01N 47°41' W 122°25'0 0.1
2019-Apr-10 15:30N 47°41' W 122°25'0 0.6
2019-Apr-10 15:00N 47°41' W 122°24'0 0.1
2019-Apr-10 14:30N 47°41' W 122°24'0 0.0
2019-Apr-10 04:01N 47°41' W 122°24'0 0.0
2019-Apr-10 04:00N 47°41' W 122°24'2 3.9
2019-Apr-10 03:30N 47°43' W 122°24'2 0.5
2019-Apr-09 23:21N 47°41' W 122°24'0 0.6
2019-Apr-09 23:00N 47°41' W 122°24'2 4.6
2019-Apr-09 22:30N 47°43' W 122°23'0 0.4
2019-Apr-09 22:00N 47°43' W 122°24'0 0.2
2019-Apr-09 21:30N 47°44' W 122°23'0 0.1
2019-Apr-09 21:00N 47°44' W 122°24'0 0.4
2019-Apr-09 20:30N 47°44' W 122°24'0 0.0
2019-Apr-09 20:00N 47°44' W 122°24'0 0.5
2019-Apr-09 19:30N 47°44' W 122°24'0 0.8
2019-Apr-09 19:00N 47°43' W 122°24'0 0.7
2019-Apr-09 18:30N 47°43' W 122°25'2 3.7
2019-Apr-09 18:00N 47°41' W 122°24'0 0.6
2019-Apr-09 17:30N 47°41' W 122°24'0 0.0
2019-Apr-09 17:00N 47°41' W 122°24'0 0.0
2019-Apr-09 16:30N 47°41' W 122°24'0 0.6
2019-Apr-09 16:00N 47°41' W 122°25'1 2.5
2019-Apr-09 15:30N 47°40' W 122°23'3 5.6
2019-Apr-09 15:00N 47°39' W 122°19'  
Track history (hours):
 
Tides and Currents Weather Stations Pressure Air Temp Water Temp Dewpoint Dewpoint Depression Visibility Wind Speed Wind Dir Waves Ship Positions

Oceanographic research ship Jack Robertson (United States)

Owner: University of Washington Applied Physics Laboratory, Seattle, WA. More information available from US FCC via Universal Licensing System and Coast Guard Vessel Documentation Center.

Last reported at 2019-Apr-10 18:23 UTC. Time now 2019-Apr-18 10:23 UTC.
Position N 47°39' W 122°19'.

; draft 1.7 m.

Type: Other ship. MMSI: 367374350.

Date/timePositionNaut miles runAvg speedWind from/ knotsBaromVisibWave heightAir tempDewpointWater temp
2019-Apr-10 18:23N 47°39' W 122°19'1 3.2
2019-Apr-10 18:01N 47°39' W 122°21'2 4.6
2019-Apr-10 17:30N 47°40' W 122°24'1 1.9
2019-Apr-10 17:00N 47°41' W 122°24'0 0.7
2019-Apr-10 16:30N 47°41' W 122°25'0 0.2
2019-Apr-10 16:01N 47°41' W 122°25'0 0.1
2019-Apr-10 15:30N 47°41' W 122°25'0 0.6
2019-Apr-10 15:00N 47°41' W 122°24'0 0.1
2019-Apr-10 14:30N 47°41' W 122°24'0 0.0
2019-Apr-10 04:01N 47°41' W 122°24'0 0.0
2019-Apr-10 04:00N 47°41' W 122°24'2 3.9
2019-Apr-10 03:30N 47°43' W 122°24'2 0.5
2019-Apr-09 23:21N 47°41' W 122°24'0 0.6
2019-Apr-09 23:00N 47°41' W 122°24'2 4.6
2019-Apr-09 22:30N 47°43' W 122°23'0 0.4
2019-Apr-09 22:00N 47°43' W 122°24'0 0.2
2019-Apr-09 21:30N 47°44' W 122°23'0 0.1
2019-Apr-09 21:00N 47°44' W 122°24'0 0.4
2019-Apr-09 20:30N 47°44' W 122°24'0 0.0
2019-Apr-09 20:00N 47°44' W 122°24'0 0.5
2019-Apr-09 19:30N 47°44' W 122°24'0 0.8
2019-Apr-09 19:00N 47°43' W 122°24'0 0.7
2019-Apr-09 18:30N 47°43' W 122°25'2 3.7
2019-Apr-09 18:00N 47°41' W 122°24'0 0.6
2019-Apr-09 17:30N 47°41' W 122°24'0 0.0
2019-Apr-09 17:00N 47°41' W 122°24'0 0.0
2019-Apr-09 16:30N 47°41' W 122°24'0 0.6
2019-Apr-09 16:00N 47°41' W 122°25'1 2.5
2019-Apr-09 15:30N 47°40' W 122°23'3 5.6
2019-Apr-09 15:00N 47°39' W 122°19'  

Dump ship's entire track history